createdAt,value
2023-07-15T00:00:04.227Z,21.77
2023-07-15T00:00:35.360Z,21.77
2023-07-15T00:01:07.463Z,21.77
2023-07-15T00:01:35.148Z,21.77
2023-07-15T00:01:55.864Z,21.77
2023-07-15T00:02:27.590Z,21.77
2023-07-15T00:02:59.443Z,21.72
2023-07-15T00:03:31.430Z,21.72
2023-07-15T00:04:03.477Z,21.72
2023-07-15T00:04:35.974Z,21.72
2023-07-15T00:05:07.765Z,21.72
2023-07-15T00:05:35.062Z,21.72
2023-07-15T00:05:55.723Z,21.72
2023-07-15T00:06:28.211Z,21.72
2023-07-15T00:06:59.491Z,21.72
2023-07-15T00:07:31.372Z,21.72
2023-07-15T00:08:03.347Z,21.61
2023-07-15T00:08:36.580Z,21.61
2023-07-15T00:09:07.441Z,21.61
2023-07-15T00:09:35.053Z,21.61
2023-07-15T00:09:55.385Z,21.61
2023-07-15T00:10:27.659Z,21.61
2023-07-15T00:10:59.476Z,21.61
2023-07-15T00:11:31.417Z,21.61
2023-07-15T00:12:03.672Z,21.61
2023-07-15T00:12:35.347Z,21.61
2023-07-15T00:13:07.448Z,21.61
2023-07-15T00:13:35.068Z,21.61
2023-07-15T00:13:55.359Z,21.61
2023-07-15T00:14:27.369Z,21.61
2023-07-15T00:15:00.970Z,21.61
2023-07-15T00:15:31.385Z,21.61
2023-07-15T00:16:03.503Z,21.61
2023-07-15T00:16:35.461Z,21.50
2023-07-15T00:17:07.462Z,21.50
2023-07-15T00:17:35.073Z,21.50
2023-07-15T00:17:55.730Z,21.50
2023-07-15T00:18:27.706Z,21.50
2023-07-15T00:18:59.424Z,21.50
2023-07-15T00:19:31.394Z,21.50
2023-07-15T00:20:03.662Z,21.50
2023-07-15T00:20:35.588Z,21.50
2023-07-15T00:21:07.436Z,21.50
2023-07-15T00:21:35.070Z,21.50
2023-07-15T00:21:55.333Z,21.50
2023-07-15T00:22:27.430Z,21.38
2023-07-15T00:22:59.414Z,21.38
2023-07-15T00:23:31.340Z,21.38
2023-07-15T00:24:03.604Z,21.38
2023-07-15T00:24:36.105Z,21.38
2023-07-15T00:25:07.730Z,21.38
2023-07-15T00:25:35.498Z,21.38
2023-07-15T00:25:55.603Z,21.27
2023-07-15T00:26:27.430Z,21.27
2023-07-15T00:26:59.399Z,21.27
2023-07-15T00:27:31.599Z,21.27
2023-07-15T00:28:03.337Z,21.27
2023-07-15T00:28:35.361Z,21.27
2023-07-15T00:29:07.466Z,21.27
2023-07-15T00:29:35.926Z,21.27
2023-07-15T00:29:55.346Z,21.27
2023-07-15T00:30:28.201Z,21.27
2023-07-15T00:31:00.215Z,21.27
2023-07-15T00:31:31.405Z,21.27
2023-07-15T00:32:03.382Z,21.27
2023-07-15T00:32:35.385Z,21.27
2023-07-15T00:33:07.767Z,21.27
2023-07-15T00:33:35.057Z,21.22
2023-07-15T00:33:55.330Z,21.22
2023-07-15T00:34:27.387Z,21.22
2023-07-15T00:34:59.449Z,21.22
2023-07-15T00:35:31.744Z,21.22
2023-07-15T00:36:03.586Z,21.22
2023-07-15T00:36:35.362Z,21.22
2023-07-15T00:37:07.692Z,21.27
2023-07-15T00:37:35.680Z,21.27
2023-07-15T00:37:55.929Z,21.27
2023-07-15T00:38:27.377Z,21.27
2023-07-15T00:38:59.362Z,21.27
2023-07-15T00:39:31.576Z,21.38
2023-07-15T00:40:03.643Z,21.38
2023-07-15T00:40:37.854Z,21.38
2023-07-15T00:41:08.276Z,21.38
2023-07-15T00:41:35.115Z,21.38
2023-07-15T00:41:55.447Z,21.50
2023-07-15T00:42:27.677Z,21.50
2023-07-15T00:43:00.473Z,21.61
2023-07-15T00:43:33.304Z,21.61
2023-07-15T00:44:03.537Z,21.72
2023-07-15T00:44:35.623Z,21.72
2023-07-15T00:45:09.184Z,21.77
2023-07-15T00:45:35.260Z,21.77
2023-07-15T00:45:56.116Z,21.88
2023-07-15T00:46:28.370Z,22.00
2023-07-15T00:46:59.538Z,22.00
2023-07-15T00:47:31.886Z,22.00
2023-07-15T00:48:06.083Z,22.00
2023-07-15T00:48:35.503Z,21.88
2023-07-15T00:49:07.706Z,21.88
2023-07-15T00:49:35.940Z,21.77
2023-07-15T00:49:55.342Z,21.77
2023-07-15T00:50:27.778Z,21.77
2023-07-15T00:50:59.718Z,21.77
2023-07-15T00:51:32.647Z,21.77
2023-07-15T00:52:03.392Z,21.72
2023-07-15T00:52:35.474Z,21.72
2023-07-15T00:53:07.517Z,21.72
2023-07-15T00:53:35.193Z,21.72
2023-07-15T00:53:55.459Z,21.72
2023-07-15T00:54:27.831Z,21.72
2023-07-15T00:54:59.452Z,21.61
2023-07-15T00:55:31.728Z,21.61
2023-07-15T00:56:04.250Z,21.61
2023-07-15T00:56:35.423Z,21.50
2023-07-15T00:57:07.578Z,21.50
2023-07-15T00:57:35.159Z,21.50
2023-07-15T00:57:55.431Z,21.50
2023-07-15T00:58:27.550Z,21.50
2023-07-15T00:58:59.490Z,21.50
2023-07-15T00:59:31.415Z,21.50
2023-07-15T01:00:04.585Z,21.38
2023-07-15T01:00:35.466Z,21.38
2023-07-15T01:01:07.911Z,21.27
2023-07-15T01:01:35.790Z,21.22
2023-07-15T01:01:55.397Z,21.22
2023-07-15T01:02:28.459Z,21.22
2023-07-15T01:02:59.512Z,21.22
2023-07-15T01:03:31.647Z,21.22
2023-07-15T01:04:03.697Z,21.22
2023-07-15T01:04:35.387Z,21.27
2023-07-15T01:05:07.994Z,21.27
2023-07-15T01:05:36.010Z,21.27
2023-07-15T01:05:55.655Z,21.27
2023-07-15T01:06:27.742Z,21.27
2023-07-15T01:06:59.445Z,21.27
2023-07-15T01:07:31.379Z,21.22
2023-07-15T01:08:03.310Z,21.22
2023-07-15T01:08:35.375Z,21.22
2023-07-15T01:09:07.476Z,21.27
2023-07-15T01:09:35.115Z,21.50
2023-07-15T01:09:55.619Z,21.77
2023-07-15T01:10:27.622Z,22.11
2023-07-15T01:10:59.296Z,22.27
2023-07-15T01:11:31.309Z,22.27
2023-07-15T01:12:04.427Z,22.38
2023-07-15T01:12:35.722Z,22.38
2023-07-15T01:13:07.498Z,22.27
2023-07-15T01:13:35.057Z,22.27
2023-07-15T01:13:55.361Z,22.27
2023-07-15T01:14:27.637Z,22.27
2023-07-15T01:14:59.354Z,22.27
2023-07-15T01:15:31.876Z,22.27
2023-07-15T01:16:03.510Z,22.38
2023-07-15T01:16:35.924Z,22.50
2023-07-15T01:17:07.431Z,22.50
2023-07-15T01:17:35.108Z,22.50
2023-07-15T01:17:55.328Z,22.50
2023-07-15T01:18:28.543Z,22.50
2023-07-15T01:18:59.313Z,22.27
2023-07-15T01:19:31.322Z,22.22
2023-07-15T01:20:03.573Z,22.11
2023-07-15T01:20:35.534Z,22.11
2023-07-15T01:21:07.617Z,22.11
2023-07-15T01:21:36.607Z,22.11
2023-07-15T01:21:55.303Z,22.00
2023-07-15T01:22:27.466Z,22.00
2023-07-15T01:22:59.455Z,22.11
2023-07-15T01:23:31.320Z,22.11
2023-07-15T01:24:03.805Z,22.11
2023-07-15T01:24:35.323Z,22.11
2023-07-15T01:25:08.280Z,22.22
2023-07-15T01:25:35.061Z,22.22
2023-07-15T01:25:55.597Z,22.27
2023-07-15T01:26:27.363Z,22.38
2023-07-15T01:26:59.325Z,22.38
2023-07-15T01:27:31.289Z,22.38
2023-07-15T01:28:04.016Z,22.38
2023-07-15T01:28:35.306Z,22.38
2023-07-15T01:29:07.482Z,22.38
2023-07-15T01:29:35.066Z,22.38
2023-07-15T01:29:55.297Z,22.27
2023-07-15T01:30:28.833Z,22.27
2023-07-15T01:30:59.409Z,22.22
2023-07-15T01:31:31.353Z,22.22
2023-07-15T01:32:03.321Z,22.22
2023-07-15T01:32:35.730Z,22.22
2023-07-15T01:33:07.577Z,22.22
2023-07-15T01:33:35.049Z,22.22
2023-07-15T01:33:55.300Z,22.22
2023-07-15T01:34:28.019Z,22.22
2023-07-15T01:34:59.329Z,22.11
2023-07-15T01:35:32.222Z,22.11
2023-07-15T01:36:03.558Z,22.11
2023-07-15T01:36:35.278Z,22.11
2023-07-15T01:37:07.503Z,22.00
2023-07-15T01:37:37.270Z,22.00
2023-07-15T01:37:55.316Z,22.00
2023-07-15T01:38:27.381Z,22.00
2023-07-15T01:38:59.335Z,22.00
2023-07-15T01:39:31.331Z,22.00
2023-07-15T01:40:03.523Z,22.00
2023-07-15T01:40:35.322Z,22.11
2023-07-15T01:41:07.574Z,22.11
2023-07-15T01:41:35.044Z,22.11
2023-07-15T01:41:55.300Z,22.11
2023-07-15T01:42:27.526Z,22.11
2023-07-15T01:42:59.338Z,22.11
2023-07-15T01:43:31.297Z,22.11
2023-07-15T01:44:03.321Z,22.11
2023-07-15T01:44:35.446Z,22.22
2023-07-15T01:45:08.167Z,22.22
2023-07-15T01:45:35.364Z,22.22
2023-07-15T01:45:55.599Z,22.22
2023-07-15T01:46:28.073Z,22.22
2023-07-15T01:46:59.352Z,22.11
2023-07-15T01:47:31.363Z,22.11
2023-07-15T01:48:03.730Z,22.00
2023-07-15T01:48:35.485Z,22.00
2023-07-15T01:49:07.677Z,22.00
2023-07-15T01:49:37.968Z,22.00
2023-07-15T01:49:55.272Z,22.00
2023-07-15T01:50:27.642Z,22.00
2023-07-15T01:50:59.302Z,22.00
2023-07-15T01:51:31.317Z,21.88
2023-07-15T01:52:03.273Z,21.77
2023-07-15T01:52:35.367Z,21.72
2023-07-15T01:53:07.582Z,21.72
2023-07-15T01:53:35.034Z,21.72
2023-07-15T01:53:55.302Z,21.72
2023-07-15T01:54:27.597Z,21.72
2023-07-15T01:54:59.257Z,21.72
2023-07-15T01:55:32.000Z,21.72
2023-07-15T01:56:04.235Z,21.72
2023-07-15T01:56:35.290Z,21.72
2023-07-15T01:57:07.526Z,21.72
2023-07-15T01:57:35.040Z,21.72
2023-07-15T01:57:55.262Z,21.72
2023-07-15T01:58:27.337Z,21.72
2023-07-15T01:58:59.463Z,21.72
2023-07-15T01:59:31.283Z,21.72
2023-07-15T02:00:04.217Z,21.72
2023-07-15T02:00:35.326Z,21.72
2023-07-15T02:01:07.801Z,21.72
2023-07-15T02:01:35.218Z,21.72
2023-07-15T02:01:55.376Z,21.77
2023-07-15T02:02:28.320Z,21.77
2023-07-15T02:02:59.417Z,21.77
2023-07-15T02:03:31.344Z,21.77
2023-07-15T02:04:03.334Z,21.72
2023-07-15T02:04:35.499Z,21.72
2023-07-15T02:05:08.011Z,21.61
2023-07-15T02:05:37.611Z,21.61
2023-07-15T02:05:55.528Z,21.61
2023-07-15T02:06:27.990Z,21.61
2023-07-15T02:06:59.273Z,21.61
2023-07-15T02:07:31.589Z,21.61
2023-07-15T02:08:03.283Z,21.61
2023-07-15T02:08:35.447Z,21.61
2023-07-15T02:09:07.556Z,21.61
2023-07-15T02:09:35.269Z,21.61
2023-07-15T02:09:55.281Z,21.61
2023-07-15T02:10:27.620Z,21.61
2023-07-15T02:10:59.328Z,21.61
2023-07-15T02:11:31.677Z,21.61
2023-07-15T02:12:04.701Z,21.61
2023-07-15T02:12:35.313Z,21.61
2023-07-15T02:13:07.647Z,21.61
2023-07-15T02:13:35.042Z,21.61
2023-07-15T02:13:55.355Z,21.61
2023-07-15T02:14:27.300Z,21.61
2023-07-15T02:14:59.241Z,21.77
2023-07-15T02:15:31.776Z,21.77
2023-07-15T02:16:03.449Z,21.88
2023-07-15T02:16:35.609Z,22.00
2023-07-15T02:17:07.775Z,22.11
2023-07-15T02:17:35.090Z,22.22
2023-07-15T02:17:55.390Z,22.22
2023-07-15T02:18:28.202Z,22.22
2023-07-15T02:18:59.290Z,22.22
2023-07-15T02:19:31.309Z,22.22
2023-07-15T02:20:03.605Z,22.11
2023-07-15T02:20:35.292Z,22.11
2023-07-15T02:21:07.621Z,22.11
2023-07-15T02:21:37.270Z,22.11
2023-07-15T02:21:55.281Z,22.11
2023-07-15T02:22:27.523Z,22.11
2023-07-15T02:22:59.277Z,22.00
2023-07-15T02:23:31.239Z,22.00
2023-07-15T02:24:03.655Z,21.88
2023-07-15T02:24:35.267Z,21.77
2023-07-15T02:25:08.017Z,21.77
2023-07-15T02:25:35.049Z,21.72
2023-07-15T02:25:55.591Z,21.72
2023-07-15T02:26:27.314Z,21.72
2023-07-15T02:26:59.545Z,21.61
2023-07-15T02:27:31.302Z,21.61
2023-07-15T02:28:03.973Z,21.61
2023-07-15T02:28:35.479Z,21.50
2023-07-15T02:29:07.685Z,21.50
2023-07-15T02:29:35.033Z,21.50
2023-07-15T02:29:55.356Z,21.50
2023-07-15T02:30:28.292Z,21.61
2023-07-15T02:30:59.358Z,21.61
2023-07-15T02:31:31.242Z,21.61
2023-07-15T02:32:03.242Z,21.61
2023-07-15T02:32:35.273Z,21.61
2023-07-15T02:33:07.869Z,21.61
2023-07-15T02:33:35.166Z,21.61
2023-07-15T02:33:55.372Z,21.61
2023-07-15T02:34:28.072Z,21.61
2023-07-15T02:34:59.274Z,21.61
2023-07-15T02:35:31.622Z,21.61
2023-07-15T02:36:03.652Z,21.61
2023-07-15T02:36:35.331Z,21.61
2023-07-15T02:37:07.702Z,21.61
2023-07-15T02:37:36.045Z,21.61
2023-07-15T02:37:55.351Z,21.72
2023-07-15T02:38:27.281Z,21.72
2023-07-15T02:38:59.306Z,21.72
2023-07-15T02:39:31.356Z,21.61
2023-07-15T02:40:03.515Z,21.61
2023-07-15T02:40:35.278Z,21.50
2023-07-15T02:41:07.821Z,21.50
2023-07-15T02:41:35.098Z,21.50
2023-07-15T02:41:55.721Z,21.50
2023-07-15T02:42:27.674Z,21.50
2023-07-15T02:42:59.287Z,21.50
2023-07-15T02:43:31.278Z,21.61
2023-07-15T02:44:03.270Z,21.72
2023-07-15T02:44:35.264Z,21.77
2023-07-15T02:45:08.239Z,21.88
2023-07-15T02:45:35.387Z,21.88
2023-07-15T02:45:55.537Z,21.88
2023-07-15T02:46:28.122Z,21.88
2023-07-15T02:46:59.281Z,21.88
2023-07-15T02:47:31.262Z,21.88
2023-07-15T02:48:03.564Z,21.88
2023-07-15T02:48:35.241Z,21.88
2023-07-15T02:49:10.039Z,21.77
2023-07-15T02:49:35.929Z,21.77
2023-07-15T02:49:55.272Z,21.77
2023-07-15T02:50:27.585Z,21.77
2023-07-15T02:50:59.299Z,21.72
2023-07-15T02:51:31.281Z,21.77
2023-07-15T02:52:03.265Z,21.77
2023-07-15T02:52:35.249Z,21.77
2023-07-15T02:53:07.741Z,21.77
2023-07-15T02:53:35.018Z,21.77
2023-07-15T02:53:55.267Z,21.77
2023-07-15T02:54:27.550Z,21.77
2023-07-15T02:54:59.219Z,21.77
2023-07-15T02:55:31.523Z,21.77
2023-07-15T02:56:03.918Z,21.77
2023-07-15T02:56:35.276Z,21.77
2023-07-15T02:57:07.720Z,21.77
2023-07-15T02:57:35.374Z,21.88
2023-07-15T02:57:55.278Z,21.88
2023-07-15T02:58:27.337Z,21.88
2023-07-15T02:58:59.204Z,22.00
2023-07-15T02:59:31.274Z,22.00
2023-07-15T03:00:04.012Z,22.00
2023-07-15T03:00:35.262Z,22.00
2023-07-15T03:01:07.760Z,22.00
2023-07-15T03:01:35.524Z,21.88
2023-07-15T03:01:55.241Z,21.77
2023-07-15T03:02:28.079Z,21.77
2023-07-15T03:02:59.324Z,21.77
2023-07-15T03:03:31.211Z,21.77
2023-07-15T03:04:03.217Z,21.77
2023-07-15T03:04:36.056Z,21.77
2023-07-15T03:05:08.376Z,21.77
2023-07-15T03:05:35.890Z,21.77
2023-07-15T03:05:55.510Z,21.77
2023-07-15T03:06:27.580Z,21.77
2023-07-15T03:06:59.232Z,21.77
2023-07-15T03:07:31.301Z,21.77
2023-07-15T03:08:03.231Z,21.72
2023-07-15T03:08:35.587Z,21.72
2023-07-15T03:09:07.631Z,21.72
2023-07-15T03:09:35.014Z,21.72
2023-07-15T03:09:55.223Z,21.72
2023-07-15T03:10:27.589Z,21.72
2023-07-15T03:10:59.261Z,21.61
2023-07-15T03:11:31.293Z,21.61
2023-07-15T03:12:04.302Z,21.61
2023-07-15T03:12:35.192Z,21.72
2023-07-15T03:13:07.639Z,21.72
2023-07-15T03:13:35.071Z,21.72
2023-07-15T03:13:55.262Z,21.72
2023-07-15T03:14:27.263Z,21.77
2023-07-15T03:14:59.234Z,21.77
2023-07-15T03:15:31.915Z,21.77
2023-07-15T03:16:03.326Z,21.77
2023-07-15T03:16:35.274Z,21.77
2023-07-15T03:17:07.779Z,21.77
2023-07-15T03:17:35.033Z,21.77
2023-07-15T03:17:55.209Z,21.77
2023-07-15T03:18:28.255Z,21.72
2023-07-15T03:18:59.491Z,21.72
2023-07-15T03:19:31.177Z,21.72
2023-07-15T03:20:03.549Z,21.72
2023-07-15T03:20:35.215Z,21.72
2023-07-15T03:21:07.705Z,21.72
2023-07-15T03:21:37.556Z,21.72
2023-07-15T03:21:55.267Z,21.72
2023-07-15T03:22:27.347Z,21.72
2023-07-15T03:22:59.317Z,21.72
2023-07-15T03:23:31.254Z,21.77
2023-07-15T03:24:03.582Z,21.77
2023-07-15T03:24:35.250Z,21.77
2023-07-15T03:25:08.089Z,21.77
2023-07-15T03:25:35.037Z,21.77
2023-07-15T03:25:55.433Z,21.77
2023-07-15T03:26:27.357Z,21.77
2023-07-15T03:26:59.284Z,21.77
2023-07-15T03:27:31.217Z,21.77
2023-07-15T03:28:03.980Z,21.77
2023-07-15T03:28:35.193Z,21.77
2023-07-15T03:29:07.799Z,21.77
2023-07-15T03:29:35.057Z,21.77
2023-07-15T03:29:55.236Z,21.77
2023-07-15T03:30:28.005Z,21.77
2023-07-15T03:30:59.343Z,21.77
2023-07-15T03:31:31.257Z,21.72
2023-07-15T03:32:03.325Z,21.72
2023-07-15T03:32:35.314Z,21.72
2023-07-15T03:33:07.986Z,21.72
2023-07-15T03:33:35.069Z,21.72
2023-07-15T03:33:55.218Z,21.72
2023-07-15T03:34:28.035Z,21.72
2023-07-15T03:34:59.320Z,21.77
2023-07-15T03:35:31.601Z,21.77
2023-07-15T03:36:03.597Z,21.77
2023-07-15T03:36:35.296Z,21.77
2023-07-15T03:37:07.771Z,21.77
2023-07-15T03:37:36.263Z,21.77
2023-07-15T03:37:55.344Z,21.88
2023-07-15T03:38:27.449Z,21.88
2023-07-15T03:38:59.372Z,22.00
2023-07-15T03:39:31.296Z,22.00
2023-07-15T03:40:03.671Z,22.00
2023-07-15T03:40:35.344Z,22.00
2023-07-15T03:41:07.960Z,22.00
2023-07-15T03:41:35.165Z,22.00
2023-07-15T03:41:55.312Z,22.00
2023-07-15T03:42:27.667Z,22.00
2023-07-15T03:42:59.306Z,22.00
2023-07-15T03:43:31.274Z,22.00
2023-07-15T03:44:04.112Z,22.00
2023-07-15T03:44:35.343Z,22.00
2023-07-15T03:45:08.324Z,22.00
2023-07-15T03:45:35.144Z,22.00
2023-07-15T03:45:55.683Z,22.00
2023-07-15T03:46:27.432Z,22.00
2023-07-15T03:46:59.346Z,22.00
2023-07-15T03:47:31.405Z,22.00
2023-07-15T03:48:03.620Z,22.00
2023-07-15T03:48:35.332Z,21.88
2023-07-15T03:49:07.821Z,21.88
2023-07-15T03:49:35.132Z,21.88
2023-07-15T03:49:55.347Z,21.88
2023-07-15T03:50:28.450Z,21.88
2023-07-15T03:50:59.305Z,21.88
2023-07-15T03:51:31.348Z,21.88
2023-07-15T03:52:03.321Z,21.88
2023-07-15T03:52:35.377Z,21.88
2023-07-15T03:53:07.872Z,21.88
2023-07-15T03:53:40.324Z,22.00
2023-07-15T03:54:11.757Z,22.00
2023-07-15T03:54:35.175Z,22.00
2023-07-15T03:54:59.466Z,22.00
2023-07-15T03:55:31.654Z,22.00
2023-07-15T03:56:03.353Z,22.00
2023-07-15T03:56:35.483Z,21.88
2023-07-15T03:57:07.912Z,21.88
2023-07-15T03:57:35.221Z,21.88
2023-07-15T03:57:55.353Z,21.88
2023-07-15T03:58:27.388Z,21.88
2023-07-15T03:58:59.332Z,21.88
2023-07-15T03:59:31.325Z,21.88
2023-07-15T04:00:07.763Z,21.88
2023-07-15T04:00:35.740Z,22.00
2023-07-15T04:01:08.114Z,22.00
2023-07-15T04:01:35.896Z,22.00
2023-07-15T04:01:55.457Z,22.00
2023-07-15T04:02:26.995Z,22.00
2023-07-15T04:02:58.831Z,22.00
2023-07-15T04:03:30.800Z,22.00
2023-07-15T04:04:02.872Z,22.00
2023-07-15T04:04:34.824Z,22.11
2023-07-15T04:05:07.216Z,22.22
2023-07-15T04:05:34.549Z,22.22
2023-07-15T04:05:55.017Z,22.22
2023-07-15T04:06:29.913Z,22.22
2023-07-15T04:06:59.268Z,22.22
2023-07-15T04:07:31.487Z,22.22
2023-07-15T04:08:03.363Z,22.22
2023-07-15T04:08:35.718Z,22.22
2023-07-15T04:09:07.484Z,22.22
2023-07-15T04:09:35.861Z,22.22
2023-07-15T04:09:55.354Z,22.22
2023-07-15T04:10:27.650Z,22.22
2023-07-15T04:10:59.608Z,22.22
2023-07-15T04:11:31.323Z,22.22
2023-07-15T04:12:03.578Z,22.22
2023-07-15T04:12:35.880Z,22.22
2023-07-15T04:13:07.372Z,22.22
2023-07-15T04:13:35.531Z,22.22
2023-07-15T04:13:55.256Z,22.22
2023-07-15T04:14:27.289Z,22.22
2023-07-15T04:14:59.238Z,22.22
2023-07-15T04:15:31.801Z,22.22
2023-07-15T04:16:04.392Z,22.22
2023-07-15T04:16:35.802Z,22.22
2023-07-15T04:17:07.367Z,22.27
2023-07-15T04:17:35.722Z,22.27
2023-07-15T04:17:55.343Z,22.27
2023-07-15T04:18:28.362Z,22.27
2023-07-15T04:18:59.342Z,22.38
2023-07-15T04:19:31.327Z,22.38
2023-07-15T04:20:03.648Z,22.38
2023-07-15T04:20:35.817Z,22.27
2023-07-15T04:21:07.693Z,22.27
2023-07-15T04:21:35.773Z,22.27
2023-07-15T04:21:55.260Z,22.27
2023-07-15T04:22:28.057Z,22.27
2023-07-15T04:22:59.346Z,22.27
2023-07-15T04:23:31.329Z,22.27
2023-07-15T04:24:03.537Z,22.27
2023-07-15T04:24:35.664Z,22.27
2023-07-15T04:25:07.744Z,22.27
2023-07-15T04:25:36.482Z,22.27
2023-07-15T04:25:55.538Z,22.27
2023-07-15T04:26:27.312Z,22.27
2023-07-15T04:26:59.306Z,22.27
2023-07-15T04:27:31.334Z,22.27
2023-07-15T04:28:03.306Z,22.27
2023-07-15T04:28:35.664Z,22.27
2023-07-15T04:29:07.806Z,22.22
2023-07-15T04:29:35.570Z,22.22
2023-07-15T04:29:55.283Z,22.22
2023-07-15T04:30:28.225Z,22.22
2023-07-15T04:30:59.311Z,22.22
2023-07-15T04:31:31.380Z,22.22
2023-07-15T04:32:04.098Z,22.22
2023-07-15T04:32:35.978Z,22.22
2023-07-15T04:33:07.480Z,22.11
2023-07-15T04:33:35.702Z,22.11
2023-07-15T04:33:55.293Z,22.11
2023-07-15T04:34:27.335Z,22.11
2023-07-15T04:34:59.282Z,22.11
2023-07-15T04:35:31.686Z,22.11
2023-07-15T04:36:04.325Z,22.11
2023-07-15T04:36:35.739Z,22.11
2023-07-15T04:37:07.361Z,22.11
2023-07-15T04:37:35.791Z,22.11
2023-07-15T04:37:55.309Z,22.11
2023-07-15T04:38:27.971Z,22.00
2023-07-15T04:38:59.265Z,22.00
2023-07-15T04:39:31.303Z,22.00
2023-07-15T04:40:03.545Z,22.00
2023-07-15T04:40:35.720Z,21.88
2023-07-15T04:41:07.856Z,21.88
2023-07-15T04:41:37.105Z,21.88
2023-07-15T04:41:55.309Z,21.88
2023-07-15T04:42:27.601Z,21.88
2023-07-15T04:42:59.312Z,21.88
2023-07-15T04:43:31.284Z,21.88
2023-07-15T04:44:03.307Z,21.88
2023-07-15T04:44:35.670Z,21.88
2023-07-15T04:45:07.946Z,21.88
2023-07-15T04:45:35.694Z,21.88
2023-07-15T04:45:55.510Z,21.88
2023-07-15T04:46:28.154Z,21.88
2023-07-15T04:46:59.299Z,21.88
2023-07-15T04:47:31.352Z,21.88
2023-07-15T04:48:03.583Z,21.88
2023-07-15T04:48:35.688Z,21.77
2023-07-15T04:49:07.329Z,21.77
2023-07-15T04:49:37.962Z,21.77
2023-07-15T04:49:55.230Z,21.77
2023-07-15T04:50:27.605Z,21.88
2023-07-15T04:50:59.290Z,21.88
2023-07-15T04:51:31.474Z,21.88
2023-07-15T04:52:03.281Z,22.00
2023-07-15T04:52:35.943Z,22.00
2023-07-15T04:53:07.394Z,22.00
2023-07-15T04:53:35.868Z,22.00
2023-07-15T04:53:55.244Z,22.00
2023-07-15T04:54:27.524Z,22.00
2023-07-15T04:54:59.249Z,22.00
2023-07-15T04:55:31.607Z,22.00
2023-07-15T04:56:04.206Z,22.00
2023-07-15T04:56:35.721Z,22.00
2023-07-15T04:57:07.333Z,22.11
2023-07-15T04:57:35.498Z,22.11
2023-07-15T04:57:55.304Z,22.11
2023-07-15T04:58:27.261Z,22.11
2023-07-15T04:58:59.268Z,22.11
2023-07-15T04:59:31.303Z,22.11
2023-07-15T05:00:05.254Z,22.11
2023-07-15T05:00:35.731Z,22.11
2023-07-15T05:01:07.470Z,22.11
2023-07-15T05:01:36.025Z,22.11
2023-07-15T05:01:55.291Z,22.11
2023-07-15T05:02:29.002Z,22.11
2023-07-15T05:02:59.595Z,22.11
2023-07-15T05:03:31.307Z,22.11
2023-07-15T05:04:03.339Z,22.11
2023-07-15T05:04:35.719Z,22.22
2023-07-15T05:05:07.634Z,22.11
2023-07-15T05:05:36.771Z,22.11
2023-07-15T05:05:55.616Z,22.11
2023-07-15T05:06:27.609Z,22.11
2023-07-15T05:06:59.295Z,22.11
2023-07-15T05:07:39.771Z,22.11
2023-07-15T05:08:03.259Z,22.11
2023-07-15T05:08:35.734Z,22.22
2023-07-15T05:09:07.312Z,22.22
2023-07-15T05:09:35.526Z,22.22
2023-07-15T05:09:55.272Z,22.22
2023-07-15T05:10:27.589Z,22.27
2023-07-15T05:10:59.429Z,22.27
2023-07-15T05:11:31.328Z,22.27
2023-07-15T05:12:04.476Z,22.27
2023-07-15T05:12:35.909Z,22.27
2023-07-15T05:13:07.292Z,22.27
2023-07-15T05:13:35.587Z,22.27
2023-07-15T05:13:55.312Z,22.27
2023-07-15T05:14:27.297Z,22.27
2023-07-15T05:14:59.267Z,22.27
2023-07-15T05:15:31.770Z,22.27
2023-07-15T05:16:03.489Z,22.27
2023-07-15T05:16:35.916Z,22.27
2023-07-15T05:17:07.324Z,22.38
2023-07-15T05:17:35.618Z,22.38
2023-07-15T05:17:55.318Z,22.38
2023-07-15T05:18:28.195Z,22.38
2023-07-15T05:18:59.236Z,22.38
2023-07-15T05:19:31.220Z,22.38
2023-07-15T05:20:03.627Z,22.38
2023-07-15T05:20:35.861Z,22.38
2023-07-15T05:21:07.338Z,22.38
2023-07-15T05:21:36.944Z,22.50
2023-07-15T05:21:55.244Z,22.50
2023-07-15T05:22:27.339Z,22.50
2023-07-15T05:22:59.363Z,22.50
2023-07-15T05:23:31.242Z,22.50
2023-07-15T05:24:03.553Z,22.61
2023-07-15T05:24:35.877Z,22.61
2023-07-15T05:25:07.801Z,22.72
2023-07-15T05:25:35.530Z,22.72
2023-07-15T05:25:55.618Z,22.72
2023-07-15T05:26:27.220Z,22.77
2023-07-15T05:26:59.443Z,22.77
2023-07-15T05:27:31.267Z,22.88
2023-07-15T05:28:04.071Z,22.88
2023-07-15T05:28:35.923Z,22.88
2023-07-15T05:29:07.278Z,22.88
2023-07-15T05:29:35.827Z,22.88
2023-07-15T05:29:55.257Z,22.88
2023-07-15T05:30:28.345Z,22.88
2023-07-15T05:30:59.352Z,22.88
2023-07-15T05:31:32.927Z,23.00
2023-07-15T05:32:03.306Z,23.11
2023-07-15T05:32:35.733Z,23.11
2023-07-15T05:33:07.355Z,23.11
2023-07-15T05:33:36.084Z,23.11
2023-07-15T05:33:55.197Z,23.00
2023-07-15T05:34:28.033Z,23.00
2023-07-15T05:34:59.234Z,23.00
2023-07-15T05:35:31.535Z,23.00
2023-07-15T05:36:03.542Z,22.88
2023-07-15T05:36:36.021Z,22.88
2023-07-15T05:37:07.293Z,22.88
2023-07-15T05:37:37.022Z,22.88
2023-07-15T05:37:55.272Z,22.77
2023-07-15T05:38:27.266Z,22.77
2023-07-15T05:38:59.219Z,22.77
2023-07-15T05:39:31.198Z,22.77
2023-07-15T05:40:03.640Z,22.77
2023-07-15T05:40:35.710Z,22.72
2023-07-15T05:41:07.656Z,22.72
2023-07-15T05:41:35.662Z,22.72
2023-07-15T05:41:55.222Z,22.61
2023-07-15T05:42:27.717Z,22.61
2023-07-15T05:42:59.294Z,22.61
2023-07-15T05:43:31.216Z,22.61
2023-07-15T05:44:04.098Z,22.61
2023-07-15T05:44:35.956Z,22.61
2023-07-15T05:45:08.038Z,22.61
2023-07-15T05:45:35.581Z,22.61
2023-07-15T05:45:55.442Z,22.61
2023-07-15T05:46:27.243Z,22.61
2023-07-15T05:46:59.268Z,22.61
2023-07-15T05:47:31.251Z,22.72
2023-07-15T05:48:03.710Z,22.72
2023-07-15T05:48:35.677Z,22.72
2023-07-15T05:49:07.343Z,22.77
2023-07-15T05:49:35.552Z,22.77
2023-07-15T05:49:55.226Z,22.77
2023-07-15T05:50:28.214Z,22.77
2023-07-15T05:50:59.186Z,22.77
2023-07-15T05:51:31.266Z,22.77
2023-07-15T05:52:03.194Z,22.77
2023-07-15T05:52:35.713Z,22.77
2023-07-15T05:53:07.423Z,22.77
2023-07-15T05:53:35.993Z,22.88
2023-07-15T05:53:55.433Z,22.88
2023-07-15T05:54:27.472Z,23.00
2023-07-15T05:54:59.573Z,23.00
2023-07-15T05:55:31.603Z,23.00
2023-07-15T05:56:03.259Z,23.00
2023-07-15T05:56:36.006Z,23.00
2023-07-15T05:57:07.337Z,23.11
2023-07-15T05:57:35.553Z,23.11
2023-07-15T05:57:55.201Z,23.11
2023-07-15T05:58:27.195Z,23.22
2023-07-15T05:58:59.421Z,23.22
2023-07-15T05:59:31.242Z,23.27
2023-07-15T06:00:07.683Z,23.27
2023-07-15T06:00:35.783Z,23.27
2023-07-15T06:01:07.323Z,23.38
2023-07-15T06:01:35.543Z,23.38
2023-07-15T06:01:55.177Z,23.38
2023-07-15T06:02:27.284Z,23.50
2023-07-15T06:02:59.428Z,23.50
2023-07-15T06:03:31.341Z,23.61
2023-07-15T06:04:03.307Z,23.61
2023-07-15T06:04:35.617Z,23.61
2023-07-15T06:05:07.647Z,23.61
2023-07-15T06:05:35.646Z,23.61
2023-07-15T06:05:55.426Z,23.72
2023-07-15T06:06:28.450Z,23.72
2023-07-15T06:06:59.155Z,23.77
2023-07-15T06:07:31.311Z,23.77
2023-07-15T06:08:03.367Z,23.77
2023-07-15T06:08:35.749Z,23.88
2023-07-15T06:09:07.424Z,23.88
2023-07-15T06:09:36.229Z,23.88
2023-07-15T06:09:55.259Z,24.00
2023-07-15T06:10:27.537Z,24.00
2023-07-15T06:10:59.205Z,24.11
2023-07-15T06:11:31.268Z,24.11
2023-07-15T06:12:03.511Z,24.11
2023-07-15T06:12:35.689Z,24.22
2023-07-15T06:13:07.277Z,24.22
2023-07-15T06:13:35.490Z,24.22
2023-07-15T06:13:55.200Z,24.22
2023-07-15T06:14:27.218Z,24.27
2023-07-15T06:14:59.220Z,24.27
2023-07-15T06:15:32.277Z,24.27
2023-07-15T06:16:04.221Z,24.27
2023-07-15T06:16:35.687Z,24.38
2023-07-15T06:17:07.302Z,24.38
2023-07-15T06:17:35.572Z,24.38
2023-07-15T06:17:55.281Z,24.38
2023-07-15T06:18:27.562Z,24.38
2023-07-15T06:18:59.238Z,24.38
2023-07-15T06:19:31.221Z,24.38
2023-07-15T06:20:03.616Z,24.38
2023-07-15T06:20:35.614Z,24.38
2023-07-15T06:21:07.302Z,24.38
2023-07-15T06:21:35.982Z,24.38
2023-07-15T06:21:55.185Z,24.38
2023-07-15T06:22:27.969Z,24.38
2023-07-15T06:22:59.307Z,24.38
2023-07-15T06:23:31.219Z,24.38
2023-07-15T06:24:03.456Z,24.38
2023-07-15T06:24:35.673Z,24.38
2023-07-15T06:25:07.673Z,24.38
2023-07-15T06:25:36.131Z,24.38
2023-07-15T06:25:55.400Z,24.38